Terminal Aerodrome Forecast
Issued by NWS

Home | Current Version | Previous Version | Graphics & Text | Print | Product List | Glossary On
Versions: 1 2 3 4 5 6 7 8 9 10 11 12 13 14 15 16 17 18 19 20 21
000
FTUS43 KICT 160415 AAA
TAFHUT
TAF AMD
KHUT 160415Z 1604/1624 13012KT P6SM SCT030 BKN200
     FM160900 13006KT 4SM BR BKN012
     FM161600 16016G25KT P6SM SCT020 BKN035=

USA.gov is the U.S. government's official web portal to all federal, state and local government web resources and services.